x

Venice, Fl (venf1) Weather Station

12:00am - Mon 26th Jun 2017 All times are EDT. -4 hours from GMT.

  • Wind
    7mph, 9mph gusts
  • Sea Temp 88°f
  • Air Temp 82°f
  • Sea Pressure 1019.3mb
  • Venice, Fl
  • Venice, Fl

More Historic Weather Station data

Upgrade to MSW Pro to gain access to the past 30 days of data for over 8000 Wavebouys and Weather Stations around the globe.

Join Pro

Comparision Forecast

View Surf forecast
   
Mon 06/26 12:00am 7 9 mph 1019.3mb 88f 82f
Sun 06/25 11:00pm 7 8 mph 1018.9mb 89f 84f
10:00pm 13 14 mph 1018.8mb 89f 84f
9:00pm 5 6 mph 1018.4mb 89f 85f
8:00pm 5 7 mph 1018.4mb 89f 85f
7:00pm 9 10 mph 1017.6mb 89f 85f
6:00pm 11 13 mph 1017.4mb 89f 85f
5:00pm 13 14 mph 1017.8mb 89f 85f
4:00pm 10 11 mph 1018.5mb 89f 86f
3:00pm 8 8 mph 1019.3mb 88f 86f
2:00pm 10 11 mph 1019.7mb 88f 85f
1:00pm 9 9 mph 1020.3mb 88f 85f
12:00pm 9 9 mph 1020.4mb 87f 85f
11:00am 8 9 mph 1020.2mb 87f 84f
10:00am 6 6 mph 1020mb 87f 83f
9:00am 5 6 mph 1019.9mb 87f 83f
8:00am 6 9 mph 1019.4mb 87f 81f
7:00am 2 3 mph 1019.4mb 87f 79f
6:00am 3 5 mph 1019mb 87f 79f
5:00am 1 2 mph 1018.6mb 87f 80f
4:00am 6 7 mph 1018.3mb 87f 80f
3:00am 7 8 mph 1018.7mb 87f 82f
2:00am 7 8 mph 1018.7mb 88f 83f
1:00am 16 17 mph 1019mb 88f 82f
12:00am 16 17 mph 1019.6mb 88f 81f
Sat 06/24 11:00pm 3 3 mph 1019.5mb 88f 82f
10:00pm 2 3 mph 1018.8mb 88f 84f
9:00pm  -  1 mph 1017.9mb 88f 84f
8:00pm 5 6 mph 1017.8mb 89f 85f
7:00pm 10 11 mph 1017.2mb 89f 85f
6:00pm 10 11 mph 1017.2mb 89f 85f
5:00pm 10 11 mph 1017.3mb 89f 85f
4:00pm 10 11 mph 1017.9mb 88f 85f
3:00pm 10 11 mph 1018.2mb 88f 85f
2:00pm 10 13 mph 1018.7mb 87f 85f
1:00pm 13 14 mph 1019mb 87f 85f
12:00pm 10 11 mph 1018.9mb 87f 85f
11:00am 9 11 mph 1018.8mb 86f 84f
10:00am 10 14 mph 1018.2mb 86f 83f
9:00am 7 9 mph 1017.9mb 86f 81f
8:00am 6 7 mph 1017.5mb 86f 79f
7:00am 6 7 mph 1017mb 86f 78f
6:00am 7 9 mph 1016.5mb 86f 78f
5:00am 5 6 mph 1016.5mb 86f 78f
4:00am 6 7 mph 1016.3mb 86f 78f
3:00am 6 6 mph 1016.9mb 87f 78f
2:00am 3 6 mph 1017.2mb 87f 79f
1:00am 6 7 mph 1017.8mb 87f 83f
12:00am 10 11 mph 1017.9mb 87f 83f
Fri 06/23 11:00pm 13 14 mph 1017.7mb 87f 83f
10:00pm 7 9 mph 1016.8mb 88f 84f
9:00pm 7 7 mph 1016mb 88f 84f
8:00pm 9 10 mph 1015.4mb 88f 84f
7:00pm 9 10 mph 1015.5mb 88f 85f
6:00pm 9 10 mph 1015.4mb 88f 85f
5:00pm 10 10 mph 1015.7mb 88f 86f
4:00pm 13 14 mph 1016mb 88f 85f
3:00pm 10 11 mph 1016.5mb 87f 85f
2:00pm 11 11 mph 1016.9mb 87f 85f
1:00pm 14 15 mph 1017.2mb 86f 85f
12:00pm 10 11 mph 1017.3mb 86f 84f
11:00am 9 10 mph 1017.6mb 86f 83f
10:00am 9 11 mph 1017.3mb 85f 82f
9:00am 8 11 mph 1017.5mb 85f 80f
8:00am 7 8 mph 1017.3mb 85f 77f
7:00am 7 8 mph 1016.7mb 85f 75f
6:00am 7 8 mph 1016.4mb 85f 74f
5:00am 7 9 mph 1016.4mb 85f 75f
4:00am 6 8 mph 1016.5mb 86f 76f
3:00am 7 8 mph 1016.7mb 86f 77f
2:00am 7 8 mph 1017.2mb 86f 78f
1:00am 3 5 mph 1017.8mb 86f 78f
12:00am 7 8 mph 1018.3mb 86f 78f
Thu 06/22 11:00pm 6 7 mph 1018.3mb 86f 78f
10:00pm 2 2 mph 1017.6mb 86f 81f
9:00pm 1 2 mph 1016.7mb 86f 81f
8:00pm 5 6 mph 1016.3mb 86f 80f
7:00pm 9 13 mph 1017.2mb 87f 80f
6:00pm 11 13 mph 1015.5mb 87f 85f
5:00pm 13 14 mph 1016.1mb 87f 85f
4:00pm 14 15 mph 1016.6mb 87f 85f
3:00pm 10 11 mph 1016.8mb 86f 86f
2:00pm 10 11 mph 1017.1mb 85f 86f
1:00pm 13 14 mph 1017.7mb 85f 85f
12:00pm 15 16 mph 1018mb 85f 85f
11:00am 14 15 mph 1018.2mb 85f 84f
10:00am 14 16 mph 1018.3mb 85f 84f
9:00am 15 16 mph 1017.8mb 85f 82f
8:00am 6 8 mph 1017.3mb 84f 79f
7:00am 6 7 mph 1017mb 84f 77f
6:00am 6 7 mph 1016.6mb 84f 77f